sensor_id;sensor_type;location;lat;lon;timestamp;P1;durP1;ratioP1;P2;durP2;ratioP2
11084;SDS011;5596;46.826;8.650;2023-02-22T00:01:08;3.07;;;1.57;;
11084;SDS011;5596;46.826;8.650;2023-02-22T00:03:48;2.60;;;1.67;;
11084;SDS011;5596;46.826;8.650;2023-02-22T00:06:17;1.30;;;1.20;;
11084;SDS011;5596;46.826;8.650;2023-02-22T00:08:45;3.33;;;1.70;;
11084;SDS011;5596;46.826;8.650;2023-02-22T00:11:13;2.03;;;1.47;;
11084;SDS011;5596;46.826;8.650;2023-02-22T00:13:39;1.63;;;1.50;;
11084;SDS011;5596;46.826;8.650;2023-02-22T00:16:08;2.13;;;1.50;;
11084;SDS011;5596;46.826;8.650;2023-02-22T00:18:37;2.57;;;1.70;;
11084;SDS011;5596;46.826;8.650;2023-02-22T00:21:05;2.77;;;1.60;;
11084;SDS011;5596;46.826;8.650;2023-02-22T00:23:35;4.27;;;2.50;;
11084;SDS011;5596;46.826;8.650;2023-02-22T00:26:04;2.00;;;1.70;;
11084;SDS011;5596;46.826;8.650;2023-02-22T00:28:34;3.20;;;1.90;;
11084;SDS011;5596;46.826;8.650;2023-02-22T00:31:01;2.87;;;1.50;;
11084;SDS011;5596;46.826;8.650;2023-02-22T00:33:29;10.30;;;3.50;;
11084;SDS011;5596;46.826;8.650;2023-02-22T00:35:56;2.97;;;1.43;;
11084;SDS011;5596;46.826;8.650;2023-02-22T00:38:24;3.93;;;1.53;;
11084;SDS011;5596;46.826;8.650;2023-02-22T00:40:51;1.77;;;1.20;;
11084;SDS011;5596;46.826;8.650;2023-02-22T00:43:18;3.00;;;1.30;;
11084;SDS011;5596;46.826;8.650;2023-02-22T00:45:46;2.20;;;1.00;;
11084;SDS011;5596;46.826;8.650;2023-02-22T00:48:19;1.67;;;1.13;;
11084;SDS011;5596;46.826;8.650;2023-02-22T00:50:46;4.23;;;1.50;;
11084;SDS011;5596;46.826;8.650;2023-02-22T00:53:13;1.47;;;1.30;;
11084;SDS011;5596;46.826;8.650;2023-02-22T00:55:42;3.43;;;1.10;;
11084;SDS011;5596;46.826;8.650;2023-02-22T00:58:09;2.67;;;1.40;;
11084;SDS011;5596;46.826;8.650;2023-02-22T01:00:38;1.63;;;1.10;;
11084;SDS011;5596;46.826;8.650;2023-02-22T01:03:06;1.57;;;1.10;;
11084;SDS011;5596;46.826;8.650;2023-02-22T01:05:33;1.53;;;1.10;;
11084;SDS011;5596;46.826;8.650;2023-02-22T01:08:01;1.93;;;1.03;;
11084;SDS011;5596;46.826;8.650;2023-02-22T01:10:33;3.10;;;1.20;;
11084;SDS011;5596;46.826;8.650;2023-02-22T01:13:02;1.63;;;1.13;;
11084;SDS011;5596;46.826;8.650;2023-02-22T01:15:33;1.27;;;1.00;;
11084;SDS011;5596;46.826;8.650;2023-02-22T01:18:00;2.33;;;1.17;;
11084;SDS011;5596;46.826;8.650;2023-02-22T01:20:27;1.87;;;1.30;;
11084;SDS011;5596;46.826;8.650;2023-02-22T01:22:55;1.80;;;1.27;;
11084;SDS011;5596;46.826;8.650;2023-02-22T01:25:22;2.77;;;1.40;;
11084;SDS011;5596;46.826;8.650;2023-02-22T01:27:50;3.17;;;1.50;;
11084;SDS011;5596;46.826;8.650;2023-02-22T01:30:19;3.30;;;1.70;;
11084;SDS011;5596;46.826;8.650;2023-02-22T01:32:46;2.77;;;1.47;;
11084;SDS011;5596;46.826;8.650;2023-02-22T01:35:16;1.77;;;1.30;;
11084;SDS011;5596;46.826;8.650;2023-02-22T01:37:46;2.97;;;1.50;;
11084;SDS011;5596;46.826;8.650;2023-02-22T01:40:15;2.93;;;1.47;;
11084;SDS011;5596;46.826;8.650;2023-02-22T01:42:42;4.60;;;1.83;;
11084;SDS011;5596;46.826;8.650;2023-02-22T01:48:09;2.30;;;1.40;;
11084;SDS011;5596;46.826;8.650;2023-02-22T01:50:38;2.57;;;1.40;;
11084;SDS011;5596;46.826;8.650;2023-02-22T01:53:06;3.07;;;1.63;;
11084;SDS011;5596;46.826;8.650;2023-02-22T01:55:33;3.67;;;1.23;;
11084;SDS011;5596;46.826;8.650;2023-02-22T01:58:01;1.67;;;1.20;;
11084;SDS011;5596;46.826;8.650;2023-02-22T02:00:28;3.43;;;1.20;;
11084;SDS011;5596;46.826;8.650;2023-02-22T02:02:56;2.17;;;1.40;;
11084;SDS011;5596;46.826;8.650;2023-02-22T02:05:26;4.80;;;1.50;;
11084;SDS011;5596;46.826;8.650;2023-02-22T02:07:55;1.73;;;1.30;;
11084;SDS011;5596;46.826;8.650;2023-02-22T02:10:22;3.00;;;1.10;;
11084;SDS011;5596;46.826;8.650;2023-02-22T02:12:50;2.43;;;1.27;;
11084;SDS011;5596;46.826;8.650;2023-02-22T02:15:21;3.00;;;1.40;;
11084;SDS011;5596;46.826;8.650;2023-02-22T02:17:50;2.13;;;1.30;;
11084;SDS011;5596;46.826;8.650;2023-02-22T02:20:18;2.53;;;1.47;;
11084;SDS011;5596;46.826;8.650;2023-02-22T02:22:50;3.43;;;1.27;;
11084;SDS011;5596;46.826;8.650;2023-02-22T02:25:27;4.00;;;1.30;;
11084;SDS011;5596;46.826;8.650;2023-02-22T02:30:45;2.77;;;1.10;;
11084;SDS011;5596;46.826;8.650;2023-02-22T02:33:17;2.53;;;1.50;;
11084;SDS011;5596;46.826;8.650;2023-02-22T02:35:50;4.03;;;1.80;;
11084;SDS011;5596;46.826;8.650;2023-02-22T02:38:25;2.30;;;1.70;;
11084;SDS011;5596;46.826;8.650;2023-02-22T02:40:57;2.63;;;1.77;;
11084;SDS011;5596;46.826;8.650;2023-02-22T02:43:25;4.17;;;1.93;;
11084;SDS011;5596;46.826;8.650;2023-02-22T02:45:56;2.40;;;1.60;;
11084;SDS011;5596;46.826;8.650;2023-02-22T02:48:26;2.67;;;2.03;;
11084;SDS011;5596;46.826;8.650;2023-02-22T02:50:55;35.30;;;9.73;;
11084;SDS011;5596;46.826;8.650;2023-02-22T02:53:28;4.57;;;2.30;;
11084;SDS011;5596;46.826;8.650;2023-02-22T02:55:57;3.20;;;2.00;;
11084;SDS011;5596;46.826;8.650;2023-02-22T02:58:25;3.00;;;1.63;;
11084;SDS011;5596;46.826;8.650;2023-02-22T03:00:53;5.00;;;2.07;;
11084;SDS011;5596;46.826;8.650;2023-02-22T03:03:31;2.50;;;1.87;;
11084;SDS011;5596;46.826;8.650;2023-02-22T03:06:14;3.50;;;2.13;;
11084;SDS011;5596;46.826;8.650;2023-02-22T03:08:47;4.70;;;1.93;;
11084;SDS011;5596;46.826;8.650;2023-02-22T03:11:20;2.77;;;1.67;;
11084;SDS011;5596;46.826;8.650;2023-02-22T03:13:52;2.23;;;1.60;;
11084;SDS011;5596;46.826;8.650;2023-02-22T03:16:25;20.13;;;7.57;;
11084;SDS011;5596;46.826;8.650;2023-02-22T03:18:57;9.23;;;3.03;;
11084;SDS011;5596;46.826;8.650;2023-02-22T03:21:32;10.07;;;2.20;;
11084;SDS011;5596;46.826;8.650;2023-02-22T03:24:04;3.20;;;1.40;;
11084;SDS011;5596;46.826;8.650;2023-02-22T03:26:34;1.77;;;1.20;;
11084;SDS011;5596;46.826;8.650;2023-02-22T03:29:02;11.20;;;3.53;;
11084;SDS011;5596;46.826;8.650;2023-02-22T03:31:31;3.73;;;1.20;;
11084;SDS011;5596;46.826;8.650;2023-02-22T03:34:05;4.17;;;1.40;;
11084;SDS011;5596;46.826;8.650;2023-02-22T03:36:34;2.50;;;1.73;;
11084;SDS011;5596;46.826;8.650;2023-02-22T03:39:03;5.90;;;1.50;;
11084;SDS011;5596;46.826;8.650;2023-02-22T03:41:32;1.57;;;1.30;;
11084;SDS011;5596;46.826;8.650;2023-02-22T03:44:03;5.93;;;1.50;;
11084;SDS011;5596;46.826;8.650;2023-02-22T03:46:31;2.37;;;1.30;;
11084;SDS011;5596;46.826;8.650;2023-02-22T03:48:59;1.90;;;1.20;;
11084;SDS011;5596;46.826;8.650;2023-02-22T03:51:33;2.10;;;1.30;;
11084;SDS011;5596;46.826;8.650;2023-02-22T03:54:01;2.33;;;1.37;;
11084;SDS011;5596;46.826;8.650;2023-02-22T03:56:34;2.37;;;1.50;;
11084;SDS011;5596;46.826;8.650;2023-02-22T03:59:03;1.40;;;1.20;;
11084;SDS011;5596;46.826;8.650;2023-02-22T04:01:30;1.73;;;1.00;;
11084;SDS011;5596;46.826;8.650;2023-02-22T04:03:58;1.20;;;1.00;;
11084;SDS011;5596;46.826;8.650;2023-02-22T04:06:25;3.10;;;1.07;;
11084;SDS011;5596;46.826;8.650;2023-02-22T04:08:54;3.10;;;1.20;;
11084;SDS011;5596;46.826;8.650;2023-02-22T04:11:21;5.90;;;1.40;;
11084;SDS011;5596;46.826;8.650;2023-02-22T04:13:48;1.77;;;1.30;;
11084;SDS011;5596;46.826;8.650;2023-02-22T04:16:15;2.87;;;1.20;;
11084;SDS011;5596;46.826;8.650;2023-02-22T04:18:44;2.73;;;1.40;;
11084;SDS011;5596;46.826;8.650;2023-02-22T04:21:13;1.20;;;1.00;;
11084;SDS011;5596;46.826;8.650;2023-02-22T04:23:44;1.20;;;1.03;;
11084;SDS011;5596;46.826;8.650;2023-02-22T04:26:13;1.90;;;1.20;;
11084;SDS011;5596;46.826;8.650;2023-02-22T04:28:45;2.77;;;1.53;;
11084;SDS011;5596;46.826;8.650;2023-02-22T04:31:14;3.87;;;1.30;;
11084;SDS011;5596;46.826;8.650;2023-02-22T04:33:41;3.00;;;1.20;;
11084;SDS011;5596;46.826;8.650;2023-02-22T04:36:14;2.43;;;1.50;;
11084;SDS011;5596;46.826;8.650;2023-02-22T04:38:42;2.07;;;1.30;;
11084;SDS011;5596;46.826;8.650;2023-02-22T04:41:09;4.33;;;1.20;;
11084;SDS011;5596;46.826;8.650;2023-02-22T04:43:37;3.00;;;1.20;;
11084;SDS011;5596;46.826;8.650;2023-02-22T04:46:13;1.60;;;1.00;;
11084;SDS011;5596;46.826;8.650;2023-02-22T04:48:40;2.03;;;1.30;;
11084;SDS011;5596;46.826;8.650;2023-02-22T04:51:07;4.40;;;1.40;;
11084;SDS011;5596;46.826;8.650;2023-02-22T04:53:36;4.67;;;2.20;;
11084;SDS011;5596;46.826;8.650;2023-02-22T04:56:04;2.87;;;1.80;;
11084;SDS011;5596;46.826;8.650;2023-02-22T04:58:33;2.37;;;1.40;;
11084;SDS011;5596;46.826;8.650;2023-02-22T05:01:01;5.13;;;1.50;;
11084;SDS011;5596;46.826;8.650;2023-02-22T05:03:28;4.63;;;2.00;;
11084;SDS011;5596;46.826;8.650;2023-02-22T05:05:56;4.90;;;1.60;;
11084;SDS011;5596;46.826;8.650;2023-02-22T05:08:23;0.97;;;0.90;;
11084;SDS011;5596;46.826;8.650;2023-02-22T05:10:49;5.33;;;1.50;;
11084;SDS011;5596;46.826;8.650;2023-02-22T05:13:16;10.67;;;1.87;;
11084;SDS011;5596;46.826;8.650;2023-02-22T05:15:43;7.50;;;1.77;;
11084;SDS011;5596;46.826;8.650;2023-02-22T05:18:11;3.80;;;2.60;;
11084;SDS011;5596;46.826;8.650;2023-02-22T05:20:38;2.00;;;1.60;;
11084;SDS011;5596;46.826;8.650;2023-02-22T05:23:04;1.93;;;1.60;;
11084;SDS011;5596;46.826;8.650;2023-02-22T05:25:31;1.60;;;1.30;;
11084;SDS011;5596;46.826;8.650;2023-02-22T05:27:59;3.47;;;1.70;;
11084;SDS011;5596;46.826;8.650;2023-02-22T05:30:28;2.50;;;1.43;;
11084;SDS011;5596;46.826;8.650;2023-02-22T05:32:55;2.23;;;1.30;;
11084;SDS011;5596;46.826;8.650;2023-02-22T05:35:25;6.10;;;3.13;;
11084;SDS011;5596;46.826;8.650;2023-02-22T05:37:52;3.37;;;1.40;;
11084;SDS011;5596;46.826;8.650;2023-02-22T05:40:19;3.07;;;1.63;;
11084;SDS011;5596;46.826;8.650;2023-02-22T05:42:47;3.87;;;1.60;;
11084;SDS011;5596;46.826;8.650;2023-02-22T05:45:14;4.10;;;1.87;;
11084;SDS011;5596;46.826;8.650;2023-02-22T05:47:42;16.80;;;8.73;;
11084;SDS011;5596;46.826;8.650;2023-02-22T05:50:09;10.47;;;6.80;;
11084;SDS011;5596;46.826;8.650;2023-02-22T05:52:37;5.67;;;3.00;;
11084;SDS011;5596;46.826;8.650;2023-02-22T05:55:04;5.30;;;2.87;;
11084;SDS011;5596;46.826;8.650;2023-02-22T05:57:31;5.33;;;2.63;;
11084;SDS011;5596;46.826;8.650;2023-02-22T05:59:59;5.57;;;3.17;;
11084;SDS011;5596;46.826;8.650;2023-02-22T06:02:26;7.50;;;3.23;;
11084;SDS011;5596;46.826;8.650;2023-02-22T06:04:52;2.77;;;2.30;;
11084;SDS011;5596;46.826;8.650;2023-02-22T06:07:19;6.53;;;2.50;;
11084;SDS011;5596;46.826;8.650;2023-02-22T06:09:48;4.17;;;2.40;;
11084;SDS011;5596;46.826;8.650;2023-02-22T06:12:15;3.80;;;2.07;;
11084;SDS011;5596;46.826;8.650;2023-02-22T06:14:42;6.00;;;2.20;;
11084;SDS011;5596;46.826;8.650;2023-02-22T06:17:11;8.30;;;2.10;;
11084;SDS011;5596;46.826;8.650;2023-02-22T06:19:37;3.10;;;2.10;;
11084;SDS011;5596;46.826;8.650;2023-02-22T06:22:05;3.77;;;2.20;;
11084;SDS011;5596;46.826;8.650;2023-02-22T06:24:32;7.17;;;2.50;;
11084;SDS011;5596;46.826;8.650;2023-02-22T06:27:01;3.03;;;2.40;;
11084;SDS011;5596;46.826;8.650;2023-02-22T06:29:27;3.83;;;2.50;;
11084;SDS011;5596;46.826;8.650;2023-02-22T06:31:54;5.07;;;2.37;;
11084;SDS011;5596;46.826;8.650;2023-02-22T06:34:21;3.47;;;2.43;;
11084;SDS011;5596;46.826;8.650;2023-02-22T06:36:48;5.90;;;2.40;;
11084;SDS011;5596;46.826;8.650;2023-02-22T06:39:15;3.53;;;2.47;;
11084;SDS011;5596;46.826;8.650;2023-02-22T06:41:43;6.37;;;2.87;;
11084;SDS011;5596;46.826;8.650;2023-02-22T06:44:12;5.13;;;2.40;;
11084;SDS011;5596;46.826;8.650;2023-02-22T06:46:39;4.83;;;3.00;;
11084;SDS011;5596;46.826;8.650;2023-02-22T06:49:12;4.63;;;2.70;;
11084;SDS011;5596;46.826;8.650;2023-02-22T06:51:39;5.03;;;3.07;;
11084;SDS011;5596;46.826;8.650;2023-02-22T06:54:06;3.20;;;2.90;;
11084;SDS011;5596;46.826;8.650;2023-02-22T06:56:33;5.83;;;3.33;;
11084;SDS011;5596;46.826;8.650;2023-02-22T06:58:59;10.03;;;4.20;;
11084;SDS011;5596;46.826;8.650;2023-02-22T07:01:28;5.67;;;4.03;;
11084;SDS011;5596;46.826;8.650;2023-02-22T07:03:55;14.50;;;5.27;;
11084;SDS011;5596;46.826;8.650;2023-02-22T07:06:22;10.43;;;4.47;;
11084;SDS011;5596;46.826;8.650;2023-02-22T07:08:49;8.93;;;4.40;;
11084;SDS011;5596;46.826;8.650;2023-02-22T07:11:15;8.23;;;4.47;;
11084;SDS011;5596;46.826;8.650;2023-02-22T07:13:42;9.63;;;3.77;;
11084;SDS011;5596;46.826;8.650;2023-02-22T07:16:09;8.37;;;3.80;;
11084;SDS011;5596;46.826;8.650;2023-02-22T07:18:37;5.00;;;3.80;;
11084;SDS011;5596;46.826;8.650;2023-02-22T07:21:04;7.53;;;3.90;;
11084;SDS011;5596;46.826;8.650;2023-02-22T07:23:32;6.00;;;4.23;;
11084;SDS011;5596;46.826;8.650;2023-02-22T07:25:58;6.63;;;4.00;;
11084;SDS011;5596;46.826;8.650;2023-02-22T07:28:25;7.43;;;4.33;;
11084;SDS011;5596;46.826;8.650;2023-02-22T07:30:52;5.03;;;3.67;;
11084;SDS011;5596;46.826;8.650;2023-02-22T07:33:19;8.73;;;3.90;;
11084;SDS011;5596;46.826;8.650;2023-02-22T07:35:47;6.37;;;3.40;;
11084;SDS011;5596;46.826;8.650;2023-02-22T07:38:15;6.30;;;3.40;;
11084;SDS011;5596;46.826;8.650;2023-02-22T07:40:42;4.20;;;3.33;;
11084;SDS011;5596;46.826;8.650;2023-02-22T07:43:13;6.87;;;3.43;;
11084;SDS011;5596;46.826;8.650;2023-02-22T07:45:40;4.87;;;3.50;;
11084;SDS011;5596;46.826;8.650;2023-02-22T07:48:07;5.20;;;3.57;;
11084;SDS011;5596;46.826;8.650;2023-02-22T07:50:34;9.70;;;4.07;;
11084;SDS011;5596;46.826;8.650;2023-02-22T07:53:03;7.03;;;3.53;;
11084;SDS011;5596;46.826;8.650;2023-02-22T07:55:31;7.90;;;4.00;;
11084;SDS011;5596;46.826;8.650;2023-02-22T07:57:58;7.63;;;4.60;;
11084;SDS011;5596;46.826;8.650;2023-02-22T08:00:26;9.70;;;6.50;;
11084;SDS011;5596;46.826;8.650;2023-02-22T08:02:53;16.77;;;9.40;;
11084;SDS011;5596;46.826;8.650;2023-02-22T08:05:21;8.77;;;6.17;;
11084;SDS011;5596;46.826;8.650;2023-02-22T08:07:49;8.77;;;5.63;;
11084;SDS011;5596;46.826;8.650;2023-02-22T08:10:18;10.00;;;5.80;;
11084;SDS011;5596;46.826;8.650;2023-02-22T08:12:45;10.37;;;6.80;;
11084;SDS011;5596;46.826;8.650;2023-02-22T08:15:15;9.27;;;6.17;;
11084;SDS011;5596;46.826;8.650;2023-02-22T08:17:42;10.70;;;6.13;;
11084;SDS011;5596;46.826;8.650;2023-02-22T08:20:09;9.70;;;5.17;;
11084;SDS011;5596;46.826;8.650;2023-02-22T08:22:36;11.93;;;6.03;;
11084;SDS011;5596;46.826;8.650;2023-02-22T08:25:05;13.13;;;6.63;;
11084;SDS011;5596;46.826;8.650;2023-02-22T08:27:34;12.13;;;7.10;;
11084;SDS011;5596;46.826;8.650;2023-02-22T08:30:00;11.37;;;6.90;;
11084;SDS011;5596;46.826;8.650;2023-02-22T08:32:27;7.23;;;5.40;;
11084;SDS011;5596;46.826;8.650;2023-02-22T08:34:54;12.53;;;6.27;;
11084;SDS011;5596;46.826;8.650;2023-02-22T08:37:21;9.57;;;6.37;;
11084;SDS011;5596;46.826;8.650;2023-02-22T08:39:48;10.63;;;6.10;;
11084;SDS011;5596;46.826;8.650;2023-02-22T08:42:14;10.27;;;5.70;;
11084;SDS011;5596;46.826;8.650;2023-02-22T08:44:42;10.13;;;5.87;;
11084;SDS011;5596;46.826;8.650;2023-02-22T08:47:09;9.70;;;5.80;;
11084;SDS011;5596;46.826;8.650;2023-02-22T08:49:36;11.80;;;5.40;;
11084;SDS011;5596;46.826;8.650;2023-02-22T08:52:03;9.87;;;5.67;;
11084;SDS011;5596;46.826;8.650;2023-02-22T08:54:30;8.83;;;5.23;;
11084;SDS011;5596;46.826;8.650;2023-02-22T08:56:56;11.03;;;4.67;;
11084;SDS011;5596;46.826;8.650;2023-02-22T08:59:23;11.23;;;4.53;;
11084;SDS011;5596;46.826;8.650;2023-02-22T09:01:51;9.20;;;5.00;;
11084;SDS011;5596;46.826;8.650;2023-02-22T09:04:19;10.77;;;4.67;;
11084;SDS011;5596;46.826;8.650;2023-02-22T09:06:46;9.13;;;4.93;;
11084;SDS011;5596;46.826;8.650;2023-02-22T09:09:16;8.90;;;4.00;;
11084;SDS011;5596;46.826;8.650;2023-02-22T09:11:45;6.70;;;4.10;;
11084;SDS011;5596;46.826;8.650;2023-02-22T09:14:12;7.33;;;3.37;;
11084;SDS011;5596;46.826;8.650;2023-02-22T09:16:41;10.33;;;3.27;;
11084;SDS011;5596;46.826;8.650;2023-02-22T09:19:09;8.57;;;3.07;;
11084;SDS011;5596;46.826;8.650;2023-02-22T09:21:36;7.07;;;3.20;;
11084;SDS011;5596;46.826;8.650;2023-02-22T09:24:05;7.97;;;3.67;;
11084;SDS011;5596;46.826;8.650;2023-02-22T09:26:34;8.53;;;3.43;;
11084;SDS011;5596;46.826;8.650;2023-02-22T09:29:04;9.67;;;3.57;;
11084;SDS011;5596;46.826;8.650;2023-02-22T09:31:33;7.00;;;3.30;;
11084;SDS011;5596;46.826;8.650;2023-02-22T09:33:59;7.43;;;3.20;;
11084;SDS011;5596;46.826;8.650;2023-02-22T09:36:27;6.50;;;3.40;;
11084;SDS011;5596;46.826;8.650;2023-02-22T09:38:54;6.80;;;3.07;;
11084;SDS011;5596;46.826;8.650;2023-02-22T09:41:24;9.73;;;4.13;;
11084;SDS011;5596;46.826;8.650;2023-02-22T09:44:00;9.57;;;4.17;;
11084;SDS011;5596;46.826;8.650;2023-02-22T09:46:31;8.00;;;3.53;;
11084;SDS011;5596;46.826;8.650;2023-02-22T09:49:01;8.20;;;2.90;;
11084;SDS011;5596;46.826;8.650;2023-02-22T09:51:36;7.30;;;3.20;;
11084;SDS011;5596;46.826;8.650;2023-02-22T09:54:05;9.23;;;2.77;;
11084;SDS011;5596;46.826;8.650;2023-02-22T09:56:35;5.80;;;2.50;;
11084;SDS011;5596;46.826;8.650;2023-02-22T09:59:04;3.43;;;2.23;;
11084;SDS011;5596;46.826;8.650;2023-02-22T10:01:32;5.70;;;2.00;;
11084;SDS011;5596;46.826;8.650;2023-02-22T10:04:03;4.03;;;1.90;;
11084;SDS011;5596;46.826;8.650;2023-02-22T10:06:32;3.67;;;1.77;;
11084;SDS011;5596;46.826;8.650;2023-02-22T10:09:00;3.10;;;2.00;;
11084;SDS011;5596;46.826;8.650;2023-02-22T10:14:32;5.63;;;2.10;;
11084;SDS011;5596;46.826;8.650;2023-02-22T10:17:02;2.23;;;1.77;;
11084;SDS011;5596;46.826;8.650;2023-02-22T10:19:33;3.40;;;1.90;;
11084;SDS011;5596;46.826;8.650;2023-02-22T10:22:09;5.83;;;2.00;;
11084;SDS011;5596;46.826;8.650;2023-02-22T10:24:38;3.90;;;2.00;;
11084;SDS011;5596;46.826;8.650;2023-02-22T10:27:08;5.53;;;1.80;;
11084;SDS011;5596;46.826;8.650;2023-02-22T10:29:39;3.57;;;1.80;;
11084;SDS011;5596;46.826;8.650;2023-02-22T10:32:08;5.27;;;1.63;;
11084;SDS011;5596;46.826;8.650;2023-02-22T10:34:38;7.20;;;2.30;;
11084;SDS011;5596;46.826;8.650;2023-02-22T10:37:20;7.60;;;2.53;;
11084;SDS011;5596;46.826;8.650;2023-02-22T10:39:48;4.03;;;2.23;;
11084;SDS011;5596;46.826;8.650;2023-02-22T10:42:17;6.03;;;1.83;;
11084;SDS011;5596;46.826;8.650;2023-02-22T10:44:46;6.27;;;2.27;;
11084;SDS011;5596;46.826;8.650;2023-02-22T10:47:13;8.13;;;2.37;;
11084;SDS011;5596;46.826;8.650;2023-02-22T10:49:42;4.77;;;2.60;;
11084;SDS011;5596;46.826;8.650;2023-02-22T10:52:13;4.77;;;2.50;;
11084;SDS011;5596;46.826;8.650;2023-02-22T10:54:41;3.17;;;2.23;;
11084;SDS011;5596;46.826;8.650;2023-02-22T10:57:10;3.27;;;2.10;;
11084;SDS011;5596;46.826;8.650;2023-02-22T10:59:38;6.10;;;2.70;;
11084;SDS011;5596;46.826;8.650;2023-02-22T11:02:07;4.37;;;2.40;;
11084;SDS011;5596;46.826;8.650;2023-02-22T11:04:44;3.53;;;2.10;;
11084;SDS011;5596;46.826;8.650;2023-02-22T11:07:18;6.97;;;2.50;;
11084;SDS011;5596;46.826;8.650;2023-02-22T11:09:47;5.80;;;2.50;;
11084;SDS011;5596;46.826;8.650;2023-02-22T11:12:16;4.07;;;2.47;;
11084;SDS011;5596;46.826;8.650;2023-02-22T11:14:44;7.40;;;2.80;;
11084;SDS011;5596;46.826;8.650;2023-02-22T11:17:12;6.77;;;2.67;;
11084;SDS011;5596;46.826;8.650;2023-02-22T11:19:44;5.27;;;2.80;;
11084;SDS011;5596;46.826;8.650;2023-02-22T11:22:12;10.13;;;3.77;;
11084;SDS011;5596;46.826;8.650;2023-02-22T11:24:45;7.87;;;2.80;;
11084;SDS011;5596;46.826;8.650;2023-02-22T11:27:26;8.23;;;2.50;;
11084;SDS011;5596;46.826;8.650;2023-02-22T11:29:56;3.67;;;2.30;;
11084;SDS011;5596;46.826;8.650;2023-02-22T11:32:24;4.77;;;2.83;;
11084;SDS011;5596;46.826;8.650;2023-02-22T11:34:51;5.87;;;2.70;;
11084;SDS011;5596;46.826;8.650;2023-02-22T11:37:29;7.40;;;2.67;;
11084;SDS011;5596;46.826;8.650;2023-02-22T11:40:13;5.57;;;2.90;;
11084;SDS011;5596;46.826;8.650;2023-02-22T11:42:49;6.93;;;3.00;;
11084;SDS011;5596;46.826;8.650;2023-02-22T11:45:34;5.73;;;2.67;;
11084;SDS011;5596;46.826;8.650;2023-02-22T11:48:01;3.97;;;2.50;;
11084;SDS011;5596;46.826;8.650;2023-02-22T11:50:30;4.37;;;2.57;;
11084;SDS011;5596;46.826;8.650;2023-02-22T11:53:02;5.37;;;2.40;;
11084;SDS011;5596;46.826;8.650;2023-02-22T11:55:31;6.53;;;2.20;;
11084;SDS011;5596;46.826;8.650;2023-02-22T11:58:02;5.60;;;2.10;;
11084;SDS011;5596;46.826;8.650;2023-02-22T12:00:39;3.63;;;2.20;;
11084;SDS011;5596;46.826;8.650;2023-02-22T12:05:58;3.07;;;1.70;;
11084;SDS011;5596;46.826;8.650;2023-02-22T12:08:34;3.67;;;1.90;;
11084;SDS011;5596;46.826;8.650;2023-02-22T12:11:06;4.17;;;2.23;;
11084;SDS011;5596;46.826;8.650;2023-02-22T12:13:39;5.90;;;2.23;;
11084;SDS011;5596;46.826;8.650;2023-02-22T12:16:12;5.20;;;2.00;;
11084;SDS011;5596;46.826;8.650;2023-02-22T12:18:55;4.63;;;2.40;;
11084;SDS011;5596;46.826;8.650;2023-02-22T12:21:25;6.50;;;2.30;;
11084;SDS011;5596;46.826;8.650;2023-02-22T12:23:55;3.17;;;2.30;;
11084;SDS011;5596;46.826;8.650;2023-02-22T12:26:26;5.63;;;2.40;;
11084;SDS011;5596;46.826;8.650;2023-02-22T12:28:56;5.23;;;2.50;;
11084;SDS011;5596;46.826;8.650;2023-02-22T12:31:28;3.70;;;2.40;;
11084;SDS011;5596;46.826;8.650;2023-02-22T12:33:59;20.63;;;4.47;;
11084;SDS011;5596;46.826;8.650;2023-02-22T12:36:31;5.50;;;2.43;;
11084;SDS011;5596;46.826;8.650;2023-02-22T12:38:59;5.57;;;2.50;;
11084;SDS011;5596;46.826;8.650;2023-02-22T12:41:32;6.87;;;2.77;;
11084;SDS011;5596;46.826;8.650;2023-02-22T12:44:01;6.23;;;2.67;;
11084;SDS011;5596;46.826;8.650;2023-02-22T12:46:32;4.40;;;2.50;;
11084;SDS011;5596;46.826;8.650;2023-02-22T12:48:59;3.93;;;2.40;;
11084;SDS011;5596;46.826;8.650;2023-02-22T12:51:31;4.87;;;3.03;;
11084;SDS011;5596;46.826;8.650;2023-02-22T12:54:03;7.57;;;2.60;;
11084;SDS011;5596;46.826;8.650;2023-02-22T12:56:35;4.50;;;2.43;;
11084;SDS011;5596;46.826;8.650;2023-02-22T12:59:06;7.77;;;3.00;;
11084;SDS011;5596;46.826;8.650;2023-02-22T13:01:35;3.63;;;2.87;;
11084;SDS011;5596;46.826;8.650;2023-02-22T13:04:03;4.57;;;2.77;;
11084;SDS011;5596;46.826;8.650;2023-02-22T13:06:34;7.57;;;2.77;;
11084;SDS011;5596;46.826;8.650;2023-02-22T13:09:20;7.37;;;3.00;;
11084;SDS011;5596;46.826;8.650;2023-02-22T13:11:55;5.73;;;3.87;;
11084;SDS011;5596;46.826;8.650;2023-02-22T13:14:39;6.87;;;3.27;;
11084;SDS011;5596;46.826;8.650;2023-02-22T13:17:11;8.57;;;3.50;;
11084;SDS011;5596;46.826;8.650;2023-02-22T13:19:46;5.67;;;3.50;;
11084;SDS011;5596;46.826;8.650;2023-02-22T13:22:15;6.07;;;4.20;;
11084;SDS011;5596;46.826;8.650;2023-02-22T13:24:47;6.33;;;3.60;;
11084;SDS011;5596;46.826;8.650;2023-02-22T13:27:21;4.93;;;3.40;;
11084;SDS011;5596;46.826;8.650;2023-02-22T13:29:51;7.87;;;3.73;;
11084;SDS011;5596;46.826;8.650;2023-02-22T13:32:23;10.40;;;4.10;;
11084;SDS011;5596;46.826;8.650;2023-02-22T13:35:00;5.93;;;3.77;;
11084;SDS011;5596;46.826;8.650;2023-02-22T13:37:39;7.27;;;3.60;;
11084;SDS011;5596;46.826;8.650;2023-02-22T13:43:05;9.27;;;4.10;;
11084;SDS011;5596;46.826;8.650;2023-02-22T13:45:53;11.27;;;4.53;;
11084;SDS011;5596;46.826;8.650;2023-02-22T13:48:34;12.13;;;4.60;;
11084;SDS011;5596;46.826;8.650;2023-02-22T13:51:12;11.13;;;4.87;;
11084;SDS011;5596;46.826;8.650;2023-02-22T13:53:43;9.30;;;4.93;;
11084;SDS011;5596;46.826;8.650;2023-02-22T13:56:13;10.73;;;6.17;;
11084;SDS011;5596;46.826;8.650;2023-02-22T13:58:49;13.43;;;5.57;;
11084;SDS011;5596;46.826;8.650;2023-02-22T14:01:39;13.10;;;6.37;;
11084;SDS011;5596;46.826;8.650;2023-02-22T14:04:18;11.90;;;6.63;;
11084;SDS011;5596;46.826;8.650;2023-02-22T14:06:45;12.57;;;7.00;;
11084;SDS011;5596;46.826;8.650;2023-02-22T14:09:14;15.40;;;7.10;;
11084;SDS011;5596;46.826;8.650;2023-02-22T14:11:43;13.27;;;8.17;;
11084;SDS011;5596;46.826;8.650;2023-02-22T14:14:12;18.57;;;9.83;;
11084;SDS011;5596;46.826;8.650;2023-02-22T14:16:41;17.00;;;8.10;;
11084;SDS011;5596;46.826;8.650;2023-02-22T14:19:15;14.23;;;8.10;;
11084;SDS011;5596;46.826;8.650;2023-02-22T14:21:55;11.17;;;6.37;;
11084;SDS011;5596;46.826;8.650;2023-02-22T14:24:26;14.30;;;6.00;;
11084;SDS011;5596;46.826;8.650;2023-02-22T14:26:58;12.30;;;6.03;;
11084;SDS011;5596;46.826;8.650;2023-02-22T14:29:26;12.73;;;6.07;;
11084;SDS011;5596;46.826;8.650;2023-02-22T14:32:04;10.73;;;5.90;;
11084;SDS011;5596;46.826;8.650;2023-02-22T14:34:42;8.63;;;5.60;;
11084;SDS011;5596;46.826;8.650;2023-02-22T14:37:10;7.43;;;5.43;;
11084;SDS011;5596;46.826;8.650;2023-02-22T14:39:38;9.00;;;5.93;;
11084;SDS011;5596;46.826;8.650;2023-02-22T14:42:07;8.03;;;5.23;;
11084;SDS011;5596;46.826;8.650;2023-02-22T14:44:39;9.07;;;5.10;;
11084;SDS011;5596;46.826;8.650;2023-02-22T14:47:08;7.17;;;4.60;;
11084;SDS011;5596;46.826;8.650;2023-02-22T14:49:40;10.63;;;5.37;;
11084;SDS011;5596;46.826;8.650;2023-02-22T14:52:14;9.87;;;5.40;;
11084;SDS011;5596;46.826;8.650;2023-02-22T14:54:48;10.07;;;5.70;;
11084;SDS011;5596;46.826;8.650;2023-02-22T14:57:18;9.43;;;6.40;;
11084;SDS011;5596;46.826;8.650;2023-02-22T15:00:00;11.53;;;6.93;;
11084;SDS011;5596;46.826;8.650;2023-02-22T15:02:37;9.57;;;6.73;;
11084;SDS011;5596;46.826;8.650;2023-02-22T15:05:05;10.43;;;6.70;;
11084;SDS011;5596;46.826;8.650;2023-02-22T15:07:33;15.80;;;7.30;;
11084;SDS011;5596;46.826;8.650;2023-02-22T15:10:14;13.47;;;7.13;;
11084;SDS011;5596;46.826;8.650;2023-02-22T15:12:52;10.77;;;7.50;;
11084;SDS011;5596;46.826;8.650;2023-02-22T15:15:24;19.17;;;7.10;;
11084;SDS011;5596;46.826;8.650;2023-02-22T15:17:52;9.97;;;7.20;;
11084;SDS011;5596;46.826;8.650;2023-02-22T15:20:19;12.53;;;7.43;;
11084;SDS011;5596;46.826;8.650;2023-02-22T15:22:46;15.77;;;8.90;;
11084;SDS011;5596;46.826;8.650;2023-02-22T15:25:14;10.07;;;7.10;;
11084;SDS011;5596;46.826;8.650;2023-02-22T15:27:41;16.70;;;6.63;;
11084;SDS011;5596;46.826;8.650;2023-02-22T15:30:16;8.73;;;5.60;;